Minot Air Force Base
KMIB : now visible

Airfield :











YOU CAN JOIN US ON...

 
LOGIN :

Register | Disclaimer

   EN    FR    IT 

 









Legend :    VFR   Marginal VFR   IFR   Intensive IFR   Very Intensive IFR
Visi :
Ceiling :
>= 8 km
>= 3000ft
5 to 8 km
1000 to 3000 ft
1500m to 5 km
500 to 1000 ft
800 to 1500m
200 to 500 ft
< 800m
< 200 ft
Symbols :   Thunderstorms  Fog  Heavy snow  Heavy precipitations  Wind > 20 kt






- Airport Elevation : 1667 ft


KMIB - Minot Air Force Base

CURRENT METAR :
  • 041856Z AUTO 19010KT 10SM FEW110 SCT140 24/11 A3001 RMK AO2 SLP166 T02390105 $

EXPIRED METARs :
  • 041756Z AUTO 18016KT 10SM CLR 24/12 A3000 RMK AO2 DZE04 SLP161 P0000 60000 T02350115 10236 20108 57024 $
  • 041704Z AUTO 17012KT 10SM CLR 20/12 A3001 RMK AO2 DZE04 SLP167 $
  • 041656Z AUTO 16012KT 10SM -DZ FEW130 21/12 A3001 RMK AO2 DZB53 SLP167 P0000 T02050117 $

TAF TAF KMIB
Valid from the 04 at 17:00 until the 05 at 23:00 UTC


041704Z 0417/0523 15010G15KT 9000 -DZ BKN050 QNH3001INS
BECMG 0417/0418 16010G15KT 9999 NSW BKN080 QNH2999INS
BECMG 0500/0501 13009KT 9999 VCTS BKN060CB QNH2994INS
TEMPO 0501/0508 10009KT 9000 -TSRA
BECMG 0508/0509 31009KT 9999 NSW BKN050 QNH2989INS
TEMPO 0509/0513 8000 BR BKN001
BECMG 0513/0514 32009KT 9999 BKN050 QNH2993INS TX25/0422Z TN16/0512Z
KZMP FIR / North America



MET'MAP, your aeronautical weather chart ! - Copyright ORBIFLY December 2007 - Disclaimer

ORBIFLY MET'MAP TEAM :

Programming & Development : Alexandra Zaïnal
Concept & original design : Baudouin d'Aumeries
Assistance for programming : Marc-Olivier Méhu
Technical & hardware support : Manuel Goepfert

Contact : metmap@orbifly.com




SOURCES & CREDITS :

   NOAA       Earth
Advisory